Time;durP1;ratioP1;P1;durP2;ratioP2;P2;SDS_P1;SDS_P2;PMS_P1;PMS_P2;Temp;Humidity;BMP_temperature;BMP_pressure;BME280_temperature;BME280_humidity;BME280_pressure;Samples;Min_cycle;Max_cycle;Signal;HPM_P1;HPM_P2
2022/12/30 00:00:43;;;;;;;;;;;;;;;18.42;60.18;100163.23;2279683;77;51242;-77
2022/12/30 00:03:44;;;;;;;;;;;;;;;18.39;60.23;100166.79;2254603;78;52335;-78
2022/12/30 00:06:47;;;;;;;;;;;;;;;18.34;60.27;100174.09;2262663;78;51488;-78
2022/12/30 00:09:49;;;;;;;;;;;;;;;18.30;60.33;100182.17;2238894;79;50290;-78
2022/12/30 00:33:09;;;;;;;;;;;;;;;18.46;59.86;100200.64;2284467;77;22320;-78
2022/12/30 00:36:10;;;;;;;;;;;;;;;18.43;59.91;100203.72;2284053;77;50722;-76
2022/12/30 00:39:12;;;;;;;;;;;;;;;18.40;59.95;100230.89;2284080;77;51441;-77
2022/12/30 00:45:33;;;;;;;;;;;;;;;18.33;60.04;100225.98;2284368;78;22386;-77
2022/12/30 00:58:33;;;;;;;;;;;;;;;18.33;60.01;100231.34;2266895;78;22414;-77
2022/12/30 01:01:35;;;;;;;;;;;;;;;18.41;59.78;100233.88;2265571;78;51512;-77
2022/12/30 01:04:36;;;;;;;;;;;;;;;18.45;59.68;100240.52;2267066;78;51664;-76
2022/12/30 01:07:38;;;;;;;;;;;;;;;18.48;59.60;100237.97;2241966;78;52381;-78
2022/12/30 01:10:39;;;;;;;;;;;;;;;18.47;59.60;100249.20;2267014;78;51517;-79
2022/12/30 01:13:41;;;;;;;;;;;;;;;18.46;59.57;100247.53;2265464;78;51538;-78
2022/12/30 01:16:43;;;;;;;;;;;;;;;18.44;59.60;100254.92;2265377;78;51427;-79
2022/12/30 01:19:44;;;;;;;;;;;;;;;18.40;59.66;100271.08;2241840;78;52347;-79
2022/12/30 01:22:46;;;;;;;;;;;;;;;18.37;59.66;100275.48;2268161;78;50285;-78
2022/12/30 01:25:47;;;;;;;;;;;;;;;18.34;59.71;100285.73;2281306;77;50358;-78
2022/12/30 01:28:49;;;;;;;;;;;;;;;18.30;59.73;100281.79;2283493;77;50699;-79
2022/12/30 01:31:52;;;;;;;;;;;;;;;18.27;59.75;100296.39;2251120;78;50834;-78
2022/12/30 01:34:54;;;;;;;;;;;;;;;18.25;59.81;100295.23;2283853;77;51521;-79
2022/12/30 01:37:56;;;;;;;;;;;;;;;18.33;59.70;100298.81;2283979;77;50441;-79
2022/12/30 01:40:57;;;;;;;;;;;;;;;18.40;59.54;100304.56;2275908;77;50680;-78
2022/12/30 01:43:59;;;;;;;;;;;;;;;18.43;59.41;100306.85;2250960;77;49663;-77
2022/12/30 01:47:00;;;;;;;;;;;;;;;18.47;59.35;100311.31;2275828;76;50314;-78
2022/12/30 01:50:04;;;;;;;;;;;;;;;18.50;59.26;100327.03;2283941;77;50740;-79
2022/12/30 01:53:06;;;;;;;;;;;;;;;18.49;59.26;100325.34;2281217;77;51540;-78
2022/12/30 01:56:13;;;;;;;;;;;;;;;18.46;59.30;100329.75;2268948;77;50528;-78
2022/12/30 01:59:15;;;;;;;;;;;;;;;18.42;59.33;100331.14;2265499;78;50330;-78
2022/12/30 02:02:16;;;;;;;;;;;;;;;18.39;59.39;100334.20;2265380;78;51487;-78
2022/12/30 02:05:18;;;;;;;;;;;;;;;18.36;59.41;100334.59;2265520;78;50390;-78
2022/12/30 02:08:19;;;;;;;;;;;;;;;18.32;59.44;100341.36;2266845;78;50973;-78
2022/12/30 02:11:21;;;;;;;;;;;;;;;18.29;59.48;100354.62;2265453;78;50326;-78
2022/12/30 02:14:23;;;;;;;;;;;;;;;18.25;59.55;100354.14;2265461;78;50641;-78
2022/12/30 02:17:25;;;;;;;;;;;;;;;18.29;59.52;100355.96;2265362;78;51583;-78
2022/12/30 02:20:28;;;;;;;;;;;;;;;18.37;59.35;100369.23;2267021;78;51235;-77
2022/12/30 02:23:41;;;;;;;;;;;;;;;18.43;59.18;100368.47;2270649;78;50499;-76
2022/12/30 02:26:44;;;;;;;;;;;;;;;18.47;59.09;100372.44;2283742;77;51497;-78
2022/12/30 02:29:59;;;;;;;;;;;;;;;18.49;59.03;100373.06;2283813;77;51446;-77
2022/12/30 02:33:08;;;;;;;;;;;;;;;18.47;59.02;100383.64;2251019;78;52721;-77
2022/12/30 02:36:11;;;;;;;;;;;;;;;18.42;59.11;100376.68;2283785;77;50436;-77
2022/12/30 02:39:27;;;;;;;;;;;;;;;18.40;59.12;100380.91;2284024;77;51513;-77
2022/12/30 02:45:53;;;;;;;;;;;;;;;18.33;59.21;100377.31;2284371;77;22256;-79
2022/12/30 02:48:55;;;;;;;;;;;;;;;18.31;59.24;100374.50;2283988;77;51428;-78
2022/12/30 02:52:15;;;;;;;;;;;;;;;18.26;59.28;100379.93;2282713;77;51507;-78
2022/12/30 02:55:17;;;;;;;;;;;;;;;18.25;59.37;100376.09;2276921;78;51702;-78
2022/12/30 02:58:18;;;;;;;;;;;;;;;18.29;59.30;100380.06;2254446;78;52660;-77
2022/12/30 03:04:51;;;;;;;;;;;;;;;18.43;58.97;100387.22;2275993;78;22284;-77
2022/12/30 03:07:54;;;;;;;;;;;;;;;18.46;58.89;100381.48;2275667;77;51502;-78
2022/12/30 03:11:19;;;;;;;;;;;;;;;18.45;58.88;100388.39;2254360;78;52841;-78
2022/12/30 03:14:25;;;;;;;;;;;;;;;18.43;58.90;100381.86;2257470;78;51662;-77
2022/12/30 03:17:27;;;;;;;;;;;;;;;18.40;58.93;100392.14;2245480;78;50704;-79
2022/12/30 03:20:29;;;;;;;;;;;;;;;18.36;58.99;100394.34;2246262;79;50523;-78
2022/12/30 03:27:03;;;;;;;;;;;;;;;18.28;59.08;100399.30;2265859;78;22350;-77
2022/12/30 03:30:05;;;;;;;;;;;;;;;18.25;59.13;100402.87;2265570;78;51657;-78
2022/12/30 03:33:07;;;;;;;;;;;;;;;18.20;59.22;100405.27;2265624;78;50829;-78
2022/12/30 03:36:16;;;;;;;;;;;;;;;18.23;59.21;100405.72;2266881;78;49608;-78
2022/12/30 03:39:18;;;;;;;;;;;;;;;18.32;59.04;100409.66;2265638;78;51537;-79
2022/12/30 03:42:20;;;;;;;;;;;;;;;18.39;58.88;100409.21;2265587;78;50792;-78
2022/12/30 03:45:21;;;;;;;;;;;;;;;18.43;58.78;100413.19;2265544;78;51439;-77
2022/12/30 03:48:23;;;;;;;;;;;;;;;18.44;58.74;100417.00;2266932;78;52780;-77
2022/12/30 03:51:24;;;;;;;;;;;;;;;18.46;58.68;100426.20;2264066;78;50737;-77
2022/12/30 03:54:26;;;;;;;;;;;;;;;18.44;58.70;100430.39;2277356;77;51565;-76
2022/12/30 03:57:28;;;;;;;;;;;;;;;18.44;58.70;100441.11;2283923;77;51541;-77
2022/12/30 04:00:29;;;;;;;;;;;;;;;18.40;58.75;100443.86;2284048;77;51540;-77
2022/12/30 04:03:31;;;;;;;;;;;;;;;18.37;58.77;100448.25;2251116;77;50081;-77
2022/12/30 04:06:32;;;;;;;;;;;;;;;18.32;58.86;100450.66;2283919;78;51467;-77
2022/12/30 04:09:34;;;;;;;;;;;;;;;18.30;58.89;100449.19;2283970;77;51395;-76
2022/12/30 04:12:36;;;;;;;;;;;;;;;18.26;58.94;100447.37;2276103;76;49995;-76
2022/12/30 04:15:37;;;;;;;;;;;;;;;18.22;59.00;100452.80;2275957;77;50370;-78
2022/12/30 04:18:39;;;;;;;;;;;;;;;18.28;58.95;100454.72;2283936;77;50337;-79
2022/12/30 04:21:40;;;;;;;;;;;;;;;18.36;58.74;100447.91;2283984;77;50734;-78
2022/12/30 04:24:42;;;;;;;;;;;;;;;18.43;58.58;100449.35;2281169;77;51548;-77
2022/12/30 04:27:43;;;;;;;;;;;;;;;18.46;58.45;100459.17;2250879;77;51902;-78
2022/12/30 04:30:45;;;;;;;;;;;;;;;18.49;58.41;100455.29;2275946;77;50701;-78
2022/12/30 04:33:50;;;;;;;;;;;;;;;18.46;58.45;100457.02;2276026;76;51439;-76
2022/12/30 04:36:52;;;;;;;;;;;;;;;18.43;58.49;100464.09;2283788;77;51433;-78
2022/12/30 04:39:53;;;;;;;;;;;;;;;18.39;58.54;100470.31;2250889;78;52839;-78
2022/12/30 04:42:55;;;;;;;;;;;;;;;18.36;58.55;100474.70;2283994;77;51521;-78
2022/12/30 04:45:56;;;;;;;;;;;;;;;18.34;58.60;100478.58;2284089;77;51465;-77
2022/12/30 04:48:58;;;;;;;;;;;;;;;18.29;58.68;100473.80;2283872;77;51475;-77
2022/12/30 04:51:59;;;;;;;;;;;;;;;18.25;58.71;100467.14;2249511;78;49592;-78
2022/12/30 04:55:01;;;;;;;;;;;;;;;18.22;58.75;100476.89;2233977;79;51177;-77
2022/12/30 04:58:03;;;;;;;;;;;;;;;18.27;58.73;100484.69;2214530;79;50191;-76
2022/12/30 05:01:04;;;;;;;;;;;;;;;18.34;58.58;100493.31;2246180;78;50734;-77
2022/12/30 05:04:06;;;;;;;;;;;;;;;18.41;58.39;100489.71;2214236;78;52634;-77
2022/12/30 05:07:08;;;;;;;;;;;;;;;18.43;58.32;100489.02;2215321;79;50340;-78
2022/12/30 05:10:09;;;;;;;;;;;;;;;18.44;58.35;100496.03;2246347;78;50732;-76
2022/12/30 05:13:11;;;;;;;;;;;;;;;18.46;58.25;100504.72;2246366;78;51439;-78
2022/12/30 05:16:13;;;;;;;;;;;;;;;18.43;58.26;100511.80;2191142;78;52485;-78
2022/12/30 05:19:14;;;;;;;;;;;;;;;18.41;58.30;100521.86;2246358;79;51503;-76
2022/12/30 05:22:16;;;;;;;;;;;;;;;18.40;58.30;100521.55;2226646;78;51419;-78
2022/12/30 05:28:37;;;;;;;;;;;;;;;18.32;58.43;100521.64;2267160;78;23353;-77
2022/12/30 05:31:38;;;;;;;;;;;;;;;18.27;58.49;100526.20;2265668;78;51391;-76
2022/12/30 05:34:40;;;;;;;;;;;;;;;18.24;58.54;100527.92;2265600;78;50246;-77
2022/12/30 05:37:41;;;;;;;;;;;;;;;18.22;58.63;100525.10;2265562;78;50341;-79
2022/12/30 05:40:43;;;;;;;;;;;;;;;18.28;58.50;100538.57;2214362;79;52603;-78
2022/12/30 05:43:45;;;;;;;;;;;;;;;18.37;58.29;100540.67;2246312;79;50274;-77
2022/12/30 05:46:46;;;;;;;;;;;;;;;18.44;58.13;100538.89;2246283;78;50292;-79
2022/12/30 05:49:48;;;;;;;;;;;;;;;18.45;58.11;100549.13;2238837;78;50064;-77
2022/12/30 05:52:50;;;;;;;;;;;;;;;18.45;58.08;100549.95;2223194;78;51037;-75
2022/12/30 05:55:52;;;;;;;;;;;;;;;18.45;58.04;100547.79;2281663;77;50418;-77
2022/12/30 05:58:55;;;;;;;;;;;;;;;18.42;58.18;100556.17;2275948;77;51580;-77
2022/12/30 06:01:56;;;;;;;;;;;;;;;18.39;58.35;100566.75;2283569;78;50316;-77
2022/12/30 06:04:58;;;;;;;;;;;;;;;18.35;58.58;100581.55;2250567;78;51202;-78
2022/12/30 06:07:59;;;;;;;;;;;;;;;18.33;58.65;100582.22;2283305;78;50634;-77
2022/12/30 06:11:01;;;;;;;;;;;;;;;18.30;58.74;100596.50;2283557;78;51579;-77
2022/12/30 06:14:02;;;;;;;;;;;;;;;18.26;58.84;100596.87;2283646;78;51572;-77
2022/12/30 06:17:04;;;;;;;;;;;;;;;18.26;59.03;100597.35;2250477;78;51692;-74
2022/12/30 06:20:06;;;;;;;;;;;;;;;18.28;59.05;100612.74;2282103;78;51534;-75
2022/12/30 06:23:08;;;;;;;;;;;;;;;18.33;59.23;100615.70;2281587;78;50013;-77
2022/12/30 06:26:09;;;;;;;;;;;;;;;18.41;59.09;100614.80;2278017;76;51521;-77
2022/12/30 06:29:11;;;;;;;;;;;;;;;18.50;59.12;100618.56;2250387;78;50930;-76
2022/12/30 06:32:12;;;;;;;;;;;;;;;18.56;59.06;100616.16;2275485;78;50097;-75
2022/12/30 06:35:14;;;;;;;;;;;;;;;18.57;59.06;100613.28;2275484;78;50496;-76
2022/12/30 06:38:15;;;;;;;;;;;;;;;18.56;59.05;100624.20;2250427;78;50650;-75
2022/12/30 06:41:17;;;;;;;;;;;;;;;18.52;59.07;100625.56;2226218;78;52570;-77
2022/12/30 06:44:19;;;;;;;;;;;;;;;18.46;59.37;100635.17;2250728;78;51534;-76
2022/12/30 06:47:22;;;;;;;;;;;;;;;18.44;59.42;100638.02;2283265;77;51513;-77
2022/12/30 06:50:24;;;;;;;;;;;;;;;18.38;59.33;100635.26;2283464;77;51573;-77
2022/12/30 06:53:26;;;;;;;;;;;;;;;18.32;59.45;100631.98;2266977;78;50631;-76
2022/12/30 06:56:27;;;;;;;;;;;;;;;18.26;59.56;100642.89;2275719;77;50258;-76
2022/12/30 06:59:29;;;;;;;;;;;;;;;18.21;59.73;100643.45;2278855;78;50160;-75
2022/12/30 07:02:30;;;;;;;;;;;;;;;18.25;59.65;100657.30;2275371;77;50788;-75
2022/12/30 07:05:32;;;;;;;;;;;;;;;18.32;59.57;100654.23;2250518;78;52605;-77
2022/12/30 07:08:34;;;;;;;;;;;;;;;18.37;59.44;100657.20;2283200;78;49973;-78
2022/12/30 07:11:37;;;;;;;;;;;;;;;18.42;59.26;100658.83;2283518;78;51414;-77
2022/12/30 07:14:39;;;;;;;;;;;;;;;18.42;59.18;100663.33;2283548;78;51426;-77
2022/12/30 07:17:41;;;;;;;;;;;;;;;18.38;59.30;100674.10;2250173;78;51367;-77
2022/12/30 07:20:42;;;;;;;;;;;;;;;18.34;59.36;100677.66;2283616;78;50259;-75
2022/12/30 07:23:44;;;;;;;;;;;;;;;18.32;59.69;100679.68;2266475;78;51510;-77
2022/12/30 07:26:45;;;;;;;;;;;;;;;18.30;60.17;100676.34;2245758;79;51434;-76
2022/12/30 07:29:47;;;;;;;;;;;;;;;18.29;59.86;100693.44;2190639;79;51050;-74
2022/12/30 07:32:49;;;;;;;;;;;;;;;18.28;59.95;100695.77;2245935;79;50614;-76
2022/12/30 07:35:54;;;;;;;;;;;;;;;18.27;60.02;100696.28;2245950;78;51550;-77
2022/12/30 07:39:01;;;;;;;;;;;;;;;18.29;60.13;100701.48;2245671;79;51450;-77
2022/12/30 07:42:04;;;;;;;;;;;;;;;18.35;60.00;100703.94;2246116;79;23067;-75
2022/12/30 07:45:08;;;;;;;;;;;;;;;18.45;59.81;100714.73;2245913;79;51540;-75
2022/12/30 07:48:10;;;;;;;;;;;;;;;18.58;59.50;100709.27;2245666;79;51444;-76
2022/12/30 07:51:13;;;;;;;;;;;;;;;18.58;59.52;100715.97;2245994;79;50365;-78
2022/12/30 07:54:15;;;;;;;;;;;;;;;18.59;59.47;100725.66;2218471;78;50684;-76
2022/12/30 07:57:16;;;;;;;;;;;;;;;18.53;59.78;100735.26;2277573;78;51433;-76
2022/12/30 08:00:18;;;;;;;;;;;;;;;18.52;59.67;100736.77;2275244;78;51406;-76
2022/12/30 08:03:19;;;;;;;;;;;;;;;18.46;60.03;100729.78;2275253;77;50713;-76
2022/12/30 08:06:21;;;;;;;;;;;;;;;18.43;60.21;100724.78;2253724;78;52496;-77
2022/12/30 08:09:23;;;;;;;;;;;;;;;18.42;60.03;100725.81;2270740;77;51827;-75
2022/12/30 08:12:24;;;;;;;;;;;;;;;18.38;60.06;100733.86;2270911;78;51380;-75
2022/12/30 08:15:26;;;;;;;;;;;;;;;18.34;60.27;100746.45;2270872;78;51425;-76
2022/12/30 08:18:27;;;;;;;;;;;;;;;18.29;60.68;100751.03;2270861;78;49655;-76
2022/12/30 08:21:29;;;;;;;;;;;;;;;18.31;60.80;100747.64;2273933;78;50289;-74
2022/12/30 08:24:30;;;;;;;;;;;;;;;18.36;60.83;100746.60;2252069;78;50770;-78
2022/12/30 08:27:33;;;;;;;;;;;;;;;18.51;60.39;100746.66;2264910;78;51497;-77
2022/12/30 08:30:34;;;;;;;;;;;;;;;18.55;60.11;100752.48;2241532;78;51319;-78
2022/12/30 08:33:36;;;;;;;;;;;;;;;18.58;59.98;100741.42;2265141;78;50589;-77
2022/12/30 08:36:37;;;;;;;;;;;;;;;18.57;59.90;100742.42;2268034;76;50598;-76
2022/12/30 08:39:39;;;;;;;;;;;;;;;18.57;59.98;100750.45;2266767;76;51533;-80
2022/12/30 08:42:40;;;;;;;;;;;;;;;18.48;60.44;100748.36;2213384;76;52293;-77
2022/12/30 08:45:42;;;;;;;;;;;;;;;18.43;60.63;100756.94;2313616;76;51373;-77
2022/12/30 08:48:44;;;;;;;;;;;;;;;18.40;60.87;100752.45;2322063;76;49983;-76
2022/12/30 08:51:45;;;;;;;;;;;;;;;18.28;61.16;100754.70;2321982;76;50295;-76
2022/12/30 08:54:47;;;;;;;;;;;;;;;18.26;61.47;100760.73;2220470;79;49829;-76
2022/12/30 08:57:48;;;;;;;;;;;;;;;18.30;61.26;100759.37;2245728;79;50658;-77
2022/12/30 09:00:50;;;;;;;;;;;;;;;18.40;60.98;100760.48;2245789;78;51646;-78
2022/12/30 09:03:51;;;;;;;;;;;;;;;18.49;60.64;100769.60;2245888;79;51549;-76
2022/12/30 09:06:53;;;;;;;;;;;;;;;18.58;60.44;100770.91;2212635;79;51424;-77
2022/12/30 09:09:55;;;;;;;;;;;;;;;18.62;60.25;100760.95;2238530;78;51045;-77
2022/12/30 09:12:57;;;;;;;;;;;;;;;18.59;60.26;100761.84;2212872;79;50285;-76
2022/12/30 09:15:58;;;;;;;;;;;;;;;18.57;60.33;100765.20;2245878;79;50731;-77
2022/12/30 09:19:00;;;;;;;;;;;;;;;18.52;60.34;100771.09;2221433;79;50970;-77
2022/12/30 09:22:01;;;;;;;;;;;;;;;18.49;60.36;100776.81;2248187;78;51227;-75
2022/12/30 09:25:03;;;;;;;;;;;;;;;18.47;60.28;100772.99;2276115;77;51501;-76
2022/12/30 09:28:05;;;;;;;;;;;;;;;18.44;60.34;100787.23;2275616;78;51556;-77
2022/12/30 09:31:06;;;;;;;;;;;;;;;18.38;60.45;100773.22;2279532;77;52308;-76
2022/12/30 09:34:08;;;;;;;;;;;;;;;18.32;60.62;100780.64;2275670;78;51525;-76
2022/12/30 09:37:10;;;;;;;;;;;;;;;18.34;60.54;100760.70;2275621;78;51582;-77
2022/12/30 09:40:15;;;;;;;;;;;;;;;18.40;60.39;100768.02;2279583;77;50827;-75
2022/12/30 09:43:37;;;;;;;;;;;;;;;18.46;60.22;100767.80;2279543;77;50146;-77
2022/12/30 09:46:52;;;;;;;;;;;;;;;18.51;60.09;100762.73;2275544;77;51490;-77
2022/12/30 09:49:58;;;;;;;;;;;;;;;18.58;59.94;100758.84;2275591;78;50291;-77
2022/12/30 09:53:03;;;;;;;;;;;;;;;18.58;59.86;100757.50;2273020;77;50609;-76
2022/12/30 09:56:12;;;;;;;;;;;;;;;18.54;59.87;100765.05;2265598;76;52452;-76
2022/12/30 09:59:21;;;;;;;;;;;;;;;18.55;59.85;100768.55;2246289;78;51671;-77
2022/12/30 10:02:23;;;;;;;;;;;;;;;18.49;59.94;100757.55;2246334;79;51610;-76
2022/12/30 10:05:32;;;;;;;;;;;;;;;18.46;59.97;100758.42;2246234;78;50351;-77
2022/12/30 10:08:39;;;;;;;;;;;;;;;18.43;60.05;100759.61;2214282;78;52441;-77
2022/12/30 10:11:43;;;;;;;;;;;;;;;18.40;60.05;100753.28;2246323;78;51561;-77
2022/12/30 10:15:04;;;;;;;;;;;;;;;18.34;60.19;100762.05;2244907;78;51502;-76
2022/12/30 10:18:22;;;;;;;;;;;;;;;18.30;60.30;100754.02;2245881;78;51510;-77
2022/12/30 10:21:29;;;;;;;;;;;;;;;18.35;60.19;100746.28;2214438;78;50086;-77
2022/12/30 10:24:50;;;;;;;;;;;;;;;18.43;59.97;100743.53;2258886;77;51504;-77
2022/12/30 10:27:55;;;;;;;;;;;;;;;18.49;59.84;100741.47;2255743;77;50086;-76
2022/12/30 10:30:57;;;;;;;;;;;;;;;18.54;59.72;100740.94;2255564;77;51507;-77
2022/12/30 10:34:02;;;;;;;;;;;;;;;18.59;59.58;100737.72;2230769;79;50123;-76
2022/12/30 10:37:05;;;;;;;;;;;;;;;18.55;59.62;100740.42;2253612;77;51526;-76
2022/12/30 10:40:08;;;;;;;;;;;;;;;18.49;59.71;100729.41;2255525;79;50540;-76
2022/12/30 10:43:13;;;;;;;;;;;;;;;18.48;59.71;100732.29;2254128;77;50306;-77
2022/12/30 10:46:17;;;;;;;;;;;;;;;18.46;59.71;100729.78;2229110;79;51124;-76
2022/12/30 10:49:25;;;;;;;;;;;;;;;18.40;59.84;100727.83;2255533;77;51534;-76
2022/12/30 10:52:27;;;;;;;;;;;;;;;18.40;59.80;100723.81;2253394;77;50827;-77
2022/12/30 10:55:31;;;;;;;;;;;;;;;18.36;59.89;100727.84;2252538;78;50770;-77
2022/12/30 10:58:34;;;;;;;;;;;;;;;18.30;60.09;100721.05;2232629;78;51104;-77
2022/12/30 11:01:35;;;;;;;;;;;;;;;18.36;59.92;100706.42;2265663;78;51496;-78
2022/12/30 11:04:38;;;;;;;;;;;;;;;18.38;59.89;100707.08;2265582;78;50640;-76
2022/12/30 11:07:41;;;;;;;;;;;;;;;18.44;59.74;100712.22;2265600;78;51510;-76
2022/12/30 11:10:43;;;;;;;;;;;;;;;18.53;59.48;100707.64;2241946;78;52361;-76
2022/12/30 11:17:18;;;;;;;;;;;;;;;18.53;59.43;100710.31;2266000;78;22236;-76
2022/12/30 11:20:30;;;;;;;;;;;;;;;18.55;59.34;100694.86;2265654;78;50211;-77
2022/12/30 11:23:33;;;;;;;;;;;;;;;18.53;59.37;100699.09;2243467;78;52524;-77
2022/12/30 11:26:34;;;;;;;;;;;;;;;18.53;59.32;100695.06;2275994;78;51571;-77
2022/12/30 11:29:36;;;;;;;;;;;;;;;18.45;59.51;100694.63;2275786;78;50410;-77
2022/12/30 11:32:38;;;;;;;;;;;;;;;18.39;59.67;100685.95;2279708;77;50777;-77
2022/12/30 11:35:41;;;;;;;;;;;;;;;18.35;59.73;100687.86;2254610;78;52547;-77
2022/12/30 11:38:43;;;;;;;;;;;;;;;18.30;59.87;100687.57;2275816;77;51590;-76
2022/12/30 11:41:46;;;;;;;;;;;;;;;18.31;59.88;100682.02;2275773;78;50409;-76
2022/12/30 11:44:48;;;;;;;;;;;;;;;18.38;59.66;100689.66;2275800;77;50713;-76
2022/12/30 11:47:50;;;;;;;;;;;;;;;18.42;59.60;100686.96;2279616;77;49539;-76
2022/12/30 11:50:52;;;;;;;;;;;;;;;18.46;59.46;100681.55;2275833;78;50262;-76
2022/12/30 11:54:13;;;;;;;;;;;;;;;18.53;59.32;100678.16;2273453;78;51745;-76
2022/12/30 11:57:19;;;;;;;;;;;;;;;18.58;59.14;100679.79;2283967;77;50416;-76
2022/12/30 12:00:22;;;;;;;;;;;;;;;18.57;59.11;100676.77;2250923;77;52596;-77
2022/12/30 12:03:24;;;;;;;;;;;;;;;18.51;59.25;100671.63;2283657;78;51629;-76
2022/12/30 12:06:25;;;;;;;;;;;;;;;18.49;59.27;100665.61;2283261;77;51494;-76
2022/12/30 12:09:28;;;;;;;;;;;;;;;18.47;59.21;100657.78;2275407;78;51499;-77
2022/12/30 12:12:32;;;;;;;;;;;;;;;18.44;59.31;100656.78;2236970;78;50986;-76
2022/12/30 12:15:35;;;;;;;;;;;;;;;18.39;59.40;100660.51;2266268;78;51548;-77
2022/12/30 12:18:38;;;;;;;;;;;;;;;18.35;59.53;100653.87;2266553;78;51414;-77
2022/12/30 12:21:40;;;;;;;;;;;;;;;18.30;59.68;100651.41;2269408;77;50428;-76
2022/12/30 12:24:43;;;;;;;;;;;;;;;18.33;59.63;100646.52;2259114;78;49606;-78
2022/12/30 12:27:44;;;;;;;;;;;;;;;18.38;59.56;100637.42;2279525;78;51583;-77
2022/12/30 12:30:47;;;;;;;;;;;;;;;18.43;59.48;100633.69;2276868;78;51519;-77
2022/12/30 12:33:51;;;;;;;;;;;;;;;18.50;59.32;100634.63;2270156;78;51570;-77
2022/12/30 12:37:03;;;;;;;;;;;;;;;18.55;59.23;100635.91;2242209;78;52301;-77
2022/12/30 12:40:16;;;;;;;;;;;;;;;18.58;59.13;100636.40;2276812;78;50314;-76
2022/12/30 12:43:26;;;;;;;;;;;;;;;18.53;59.25;100632.61;2278010;78;51592;-77
2022/12/30 12:46:29;;;;;;;;;;;;;;;18.52;59.33;100633.61;2281064;77;51501;-77
2022/12/30 12:49:51;;;;;;;;;;;;;;;18.52;59.27;100636.28;2248457;78;52579;-78
2022/12/30 12:53:00;;;;;;;;;;;;;;;18.45;59.44;100625.48;2274823;77;50308;-76
2022/12/30 12:56:03;;;;;;;;;;;;;;;18.40;59.71;100627.36;2279545;77;51730;-77
2022/12/30 12:59:06;;;;;;;;;;;;;;;18.36;59.89;100626.56;2283676;77;51482;-76
2022/12/30 13:02:16;;;;;;;;;;;;;;;18.31;60.01;100621.75;2250553;78;52664;-76
2022/12/30 13:05:19;;;;;;;;;;;;;;;18.27;60.21;100611.91;2270083;76;51507;-77
2022/12/30 13:08:28;;;;;;;;;;;;;;;18.32;60.23;100607.36;2281320;78;51521;-76
2022/12/30 13:11:46;;;;;;;;;;;;;;;18.33;60.24;100602.31;2278720;77;50820;-76
2022/12/30 13:14:49;;;;;;;;;;;;;;;18.40;60.17;100597.90;2244220;78;51265;-76
2022/12/30 13:17:51;;;;;;;;;;;;;;;18.42;60.13;100599.03;2276974;76;50839;-77
2022/12/30 13:20:55;;;;;;;;;;;;;;;18.44;59.92;100593.81;2281940;77;50262;-77
2022/12/30 13:24:01;;;;;;;;;;;;;;;18.48;59.72;100592.45;2280084;77;51636;-76
2022/12/30 13:27:04;;;;;;;;;;;;;;;18.49;59.60;100586.06;2253724;78;49639;-76
2022/12/30 13:30:10;;;;;;;;;;;;;;;18.45;59.61;100574.58;2275087;77;51511;-76
2022/12/30 13:33:22;;;;;;;;;;;;;;;18.44;59.69;100572.90;2275174;78;50476;-77
2022/12/30 13:36:42;;;;;;;;;;;;;;;18.46;60.18;100573.04;2274979;78;50599;-77
2022/12/30 13:39:52;;;;;;;;;;;;;;;18.41;61.71;100563.38;2279149;77;52421;-77
2022/12/30 13:43:11;;;;;;;;;;;;;;;18.42;61.53;100559.70;2275594;78;50705;-77
2022/12/30 13:46:17;;;;;;;;;;;;;;;18.40;61.39;100548.34;2275233;77;51600;-79
2022/12/30 13:49:31;;;;;;;;;;;;;;;18.46;61.06;100543.56;2275345;78;50717;-78
2022/12/30 13:52:34;;;;;;;;;;;;;;;18.49;61.10;100539.17;2274590;77;51155;-75
2022/12/30 13:55:37;;;;;;;;;;;;;;;18.58;61.23;100531.06;2277371;78;50490;-75
2022/12/30 13:58:40;;;;;;;;;;;;;;;18.49;61.67;100523.09;2275407;77;51461;-76
2022/12/30 14:01:42;;;;;;;;;;;;;;;18.52;61.63;100537.14;2267930;78;50875;-75
2022/12/30 14:04:45;;;;;;;;;;;;;;;18.40;62.25;100536.28;2233998;78;51205;-76
2022/12/30 14:07:48;;;;;;;;;;;;;;;18.40;61.92;100532.27;2264503;78;50303;-76
2022/12/30 14:11:00;;;;;;;;;;;;;;;18.35;62.10;100529.30;2280619;78;52601;-75
2022/12/30 14:14:18;;;;;;;;;;;;;;;18.30;62.21;100533.05;2277393;78;50283;-71
2022/12/30 14:17:24;;;;;;;;;;;;;;;18.20;62.97;100532.48;2229758;78;50135;-72
2022/12/30 14:20:26;;;;;;;;;;;;;;;18.23;63.27;100533.45;2278518;77;50792;-74
2022/12/30 14:23:33;;;;;;;;;;;;;;;18.28;63.19;100529.71;2271355;78;52388;-73
2022/12/30 14:26:36;;;;;;;;;;;;;;;18.32;63.28;100518.97;2262529;78;51582;-72
2022/12/30 14:29:37;;;;;;;;;;;;;;;18.37;63.42;100516.56;2213289;79;51234;-72
2022/12/30 14:32:39;;;;;;;;;;;;;;;18.48;62.97;100512.07;2238281;78;50639;-77
2022/12/30 14:35:45;;;;;;;;;;;;;;;18.53;63.16;100499.98;2245844;79;50327;-75
2022/12/30 14:38:48;;;;;;;;;;;;;;;18.52;63.04;100495.62;2241548;79;51631;-76
2022/12/30 14:41:50;;;;;;;;;;;;;;;18.47;63.37;100483.63;2213937;79;51916;-76
2022/12/30 14:44:52;;;;;;;;;;;;;;;18.45;63.22;100489.67;2245810;79;52377;-78
2022/12/30 14:47:54;;;;;;;;;;;;;;;18.39;63.75;100493.08;2253007;78;50704;-78
2022/12/30 14:50:57;;;;;;;;;;;;;;;18.35;63.40;100491.80;2282081;76;51575;-77
2022/12/30 14:54:00;;;;;;;;;;;;;;;18.33;63.48;100486.31;2268897;77;22876;-77
2022/12/30 14:57:12;;;;;;;;;;;;;;;18.25;63.59;100490.73;2283736;77;51525;-76
2022/12/30 15:00:15;;;;;;;;;;;;;;;18.17;63.68;100493.51;2283918;77;50743;-77
2022/12/30 15:03:18;;;;;;;;;;;;;;;18.21;63.40;100484.59;2283958;77;50423;-77
2022/12/30 15:06:20;;;;;;;;;;;;;;;18.32;63.01;100480.13;2250911;78;52693;-77
2022/12/30 15:09:22;;;;;;;;;;;;;;;18.42;62.59;100474.46;2284349;77;50794;-79
2022/12/30 15:12:24;;;;;;;;;;;;;;;18.45;62.33;100458.87;2284383;77;50434;-76
2022/12/30 15:15:26;;;;;;;;;;;;;;;18.45;62.24;100449.48;2284261;77;51530;-76
2022/12/30 15:18:32;;;;;;;;;;;;;;;18.45;62.18;100449.48;2251273;78;49565;-76
2022/12/30 15:21:34;;;;;;;;;;;;;;;18.42;62.21;100444.51;2283826;77;51258;-76
2022/12/30 15:24:36;;;;;;;;;;;;;;;18.40;62.21;100450.55;2275616;78;50370;-76
2022/12/30 15:27:37;;;;;;;;;;;;;;;18.40;62.13;100443.86;2279739;77;50401;-76
2022/12/30 15:30:39;;;;;;;;;;;;;;;18.35;62.16;100446.27;2279618;77;49999;-76
2022/12/30 15:33:53;;;;;;;;;;;;;;;18.28;62.27;100439.47;2279846;77;50779;-76
2022/12/30 15:36:55;;;;;;;;;;;;;;;18.18;62.59;100430.06;2275815;78;50315;-76
2022/12/30 15:39:59;;;;;;;;;;;;;;;18.17;62.52;100423.88;2275906;78;51478;-76
2022/12/30 15:43:04;;;;;;;;;;;;;;;18.25;62.37;100430.98;2279858;77;51957;-76
2022/12/30 15:46:06;;;;;;;;;;;;;;;18.31;62.22;100429.41;2275922;78;51542;-77
2022/12/30 15:49:14;;;;;;;;;;;;;;;18.38;61.99;100420.95;2276033;78;51481;-76
2022/12/30 15:52:16;;;;;;;;;;;;;;;18.43;61.85;100418.03;2272253;78;50776;-75
2022/12/30 15:55:19;;;;;;;;;;;;;;;18.46;61.69;100409.61;2232136;78;52652;-76
2022/12/30 15:58:28;;;;;;;;;;;;;;;18.52;61.51;100399.16;2239010;79;51633;-76
2022/12/30 16:01:31;;;;;;;;;;;;;;;18.48;61.53;100398.20;2246735;79;50701;-76
2022/12/30 16:04:34;;;;;;;;;;;;;;;18.44;61.61;100391.55;2246657;78;51606;-76
2022/12/30 16:07:36;;;;;;;;;;;;;;;18.41;61.71;100386.57;2214727;79;50917;-76
2022/12/30 16:10:38;;;;;;;;;;;;;;;18.37;61.75;100367.89;2246573;78;51547;-76
2022/12/30 16:13:40;;;;;;;;;;;;;;;18.32;61.86;100360.93;2246642;78;50626;-77
2022/12/30 16:16:42;;;;;;;;;;;;;;;18.33;61.75;100368.45;2246518;78;50405;-76
2022/12/30 16:19:44;;;;;;;;;;;;;;;18.28;61.92;100354.28;2214800;79;50070;-76
2022/12/30 16:22:45;;;;;;;;;;;;;;;18.22;62.04;100353.19;2251205;77;50278;-76
2022/12/30 16:25:49;;;;;;;;;;;;;;;18.28;61.90;100344.91;2270515;77;50406;-78
2022/12/30 16:28:50;;;;;;;;;;;;;;;18.33;61.82;100338.48;2244843;78;50483;-76
2022/12/30 16:31:52;;;;;;;;;;;;;;;18.39;61.64;100329.67;2246106;79;50358;-76